Time;durP1;ratioP1;P1;durP2;ratioP2;P2;SDS_P1;SDS_P2;PMS_P1;PMS_P2;Temp;Humidity;BMP_temperature;BMP_pressure;BME280_temperature;BME280_humidity;BME280_pressure;Samples;Min_cycle;Max_cycle;Signal;HPM_P1;HPM_P2
2023/01/25 00:00:09;;;;;;;6.10;5.05;;;;;;;3.47;100.00;99589.84;5053075;28;20531;-62
2023/01/25 00:02:34;;;;;;;6.63;5.20;;;;;;;3.48;100.00;99583.88;5053106;28;20202;-62
2023/01/25 00:05:00;;;;;;;8.70;5.35;;;;;;;2.99;100.00;99529.50;5052653;28;20273;-62
2023/01/25 00:07:25;;;;;;;7.40;4.53;;;;;;;2.71;100.00;99497.72;5053422;28;20180;-61
2023/01/25 00:09:51;;;;;;;7.15;5.00;;;;;;;3.27;100.00;99571.53;5052366;28;20209;-62
2023/01/25 00:12:16;;;;;;;9.43;5.50;;;;;;;3.20;100.00;99559.75;5052509;28;20589;-62
2023/01/25 00:14:41;;;;;;;5.05;4.50;;;;;;;3.11;100.00;99534.38;5052790;28;20622;-62
2023/01/25 00:17:07;;;;;;;5.68;5.03;;;;;;;3.34;100.00;99583.28;5052692;28;20177;-62
2023/01/25 00:19:32;;;;;;;6.63;4.45;;;;;;;3.31;100.00;99595.31;5052702;28;20181;-61
2023/01/25 00:21:58;;;;;;;6.70;4.50;;;;;;;2.93;100.00;99550.06;5052662;28;20172;-62
2023/01/25 00:24:24;;;;;;;5.63;5.03;;;;;;;3.03;100.00;99582.25;5052458;28;20680;-62
2023/01/25 00:26:49;;;;;;;5.03;4.57;;;;;;;3.08;100.00;99603.47;5052502;28;20177;-62
2023/01/25 00:29:15;;;;;;;6.50;4.30;;;;;;;2.64;100.00;99593.22;5052288;28;20180;-62
2023/01/25 00:32:23;;;;;;;8.07;4.72;;;;;;;2.57;100.00;99606.97;5052552;28;20192;-62
2023/01/25 00:34:50;;;;;;;6.45;5.38;;;;;;;2.28;100.00;99547.91;5051102;28;20192;-62
2023/01/25 00:37:22;;;;;;;5.50;4.55;;;;;;;2.42;100.00;99602.16;5050083;28;20201;-62
2023/01/25 00:39:48;;;;;;;6.20;4.45;;;;;;;1.84;100.00;99491.69;5050158;28;20190;-61
2023/01/25 00:42:15;;;;;;;5.13;4.50;;;;;;;2.06;100.00;99536.38;5050019;28;20264;-61
2023/01/25 00:44:40;;;;;;;5.05;4.32;;;;;;;2.42;100.00;99594.50;5049868;28;20233;-62
2023/01/25 00:47:06;;;;;;;5.88;4.53;;;;;;;2.46;100.00;99608.06;5049989;28;20185;-62
2023/01/25 00:49:32;;;;;;;7.57;5.03;;;;;;;2.06;100.00;99561.91;5050008;28;20208;-62
2023/01/25 00:51:58;;;;;;;8.18;5.43;;;;;;;1.83;100.00;99532.53;5050586;28;20189;-62
2023/01/25 00:54:24;;;;;;;7.65;5.68;;;;;;;2.28;100.00;99588.75;5049855;28;20186;-62
2023/01/25 00:56:55;;;;;;;7.38;5.40;;;;;;;2.25;100.00;99586.28;5049902;28;20174;-62
2023/01/25 00:59:21;;;;;;;8.13;5.22;;;;;;;2.22;100.00;99601.63;5050068;28;20801;-62
2023/01/25 01:01:46;;;;;;;7.72;5.75;;;;;;;2.10;100.00;99589.06;5029977;28;20218;-62
2023/01/25 01:04:12;;;;;;;7.80;5.38;;;;;;;2.30;100.00;99609.16;5029948;28;20256;-62
2023/01/25 01:06:38;;;;;;;11.32;7.15;;;;;;;2.09;100.00;99546.53;5030076;28;20187;-62
2023/01/25 01:09:05;;;;;;;10.30;5.88;;;;;;;2.10;100.00;99535.47;5029808;28;20305;-61
2023/01/25 01:11:31;;;;;;;8.57;4.90;;;;;;;2.21;100.00;99576.97;5019467;28;20198;-61
2023/01/25 01:13:57;;;;;;;9.40;6.38;;;;;;;1.90;100.00;99532.41;5010089;28;20374;-62
2023/01/25 01:16:23;;;;;;;6.43;4.53;;;;;;;2.34;100.00;99586.09;5010611;28;20218;-62
2023/01/25 01:18:48;;;;;;;5.85;5.15;;;;;;;2.02;100.00;99533.91;5010912;28;20254;-62
2023/01/25 01:21:13;;;;;;;7.00;5.45;;;;;;;2.05;100.00;99537.25;5010940;28;20187;-61
2023/01/25 01:23:39;;;;;;;5.40;4.90;;;;;;;2.14;100.00;99570.28;5014403;28;20257;-61
2023/01/25 01:26:09;;;;;;;7.82;5.32;;;;;;;2.40;100.00;99580.88;5014446;28;20186;-61
2023/01/25 01:28:38;;;;;;;7.20;5.40;;;;;;;2.24;100.00;99545.44;5014331;28;20616;-61
2023/01/25 01:31:06;;;;;;;6.63;5.38;;;;;;;2.12;100.00;99515.88;5013832;28;20559;-62
2023/01/25 01:33:31;;;;;;;7.00;4.75;;;;;;;2.09;100.00;99510.81;5047992;28;20193;-62
2023/01/25 01:35:56;;;;;;;6.38;5.20;;;;;;;2.35;100.00;99569.91;5055311;28;20190;-61
2023/01/25 01:38:22;;;;;;;7.50;5.00;;;;;;;1.99;100.00;99514.38;5056264;28;20174;-61
2023/01/25 01:40:51;;;;;;;8.25;5.60;;;;;;;1.56;100.00;99458.97;5055702;28;20231;-62
2023/01/25 01:43:21;;;;;;;5.57;4.80;;;;;;;2.01;100.00;99507.56;5055598;28;20660;-61
2023/01/25 01:45:47;;;;;;;8.25;5.53;;;;;;;2.36;100.00;99576.72;5055551;28;20185;-61
2023/01/25 01:48:31;;;;;;;8.52;5.90;;;;;;;2.33;100.00;99564.00;5055555;28;20174;-62
2023/01/25 01:51:01;;;;;;;6.93;5.00;;;;;;;1.90;100.00;99488.19;5055766;28;20169;-61
2023/01/25 01:53:30;;;;;;;7.38;5.10;;;;;;;2.13;100.00;99527.78;5055451;28;20644;-62
2023/01/25 01:55:59;;;;;;;7.35;4.97;;;;;;;2.18;100.00;99525.97;5055402;28;20170;-62
2023/01/25 01:58:26;;;;;;;8.10;5.57;;;;;;;1.96;100.00;99499.13;5055289;28;20182;-62
2023/01/25 02:00:51;;;;;;;5.10;4.55;;;;;;;2.38;100.00;99567.31;5055503;28;20292;-62
2023/01/25 02:03:18;;;;;;;6.30;4.72;;;;;;;2.40;100.00;99570.66;5055223;28;20285;-62
2023/01/25 02:06:11;;;;;;;5.35;4.80;;;;;;;2.07;100.00;99512.56;5055689;28;20182;-61
2023/01/25 02:08:39;;;;;;;6.00;4.40;;;;;;;2.21;100.00;99546.34;5055175;28;20174;-62
2023/01/25 02:11:08;;;;;;;5.82;4.07;;;;;;;2.21;100.00;99540.38;5055070;28;20177;-61
2023/01/25 02:13:36;;;;;;;6.60;4.05;;;;;;;1.80;100.00;99496.84;5054757;28;20608;-61
2023/01/25 02:16:03;;;;;;;4.63;4.22;;;;;;;2.02;100.00;99522.00;5055778;28;20580;-62
2023/01/25 02:18:29;;;;;;;5.10;3.97;;;;;;;1.89;100.00;99504.38;5054894;28;20192;-61
2023/01/25 02:20:57;;;;;;;6.43;4.82;;;;;;;2.21;100.00;99563.34;5055192;28;20177;-62
2023/01/25 02:23:46;;;;;;;6.82;5.20;;;;;;;2.03;100.00;99556.84;5054812;28;20715;-62
2023/01/25 02:26:13;;;;;;;6.50;4.22;;;;;;;2.14;100.00;99559.22;5055430;28;20190;-62
2023/01/25 02:28:50;;;;;;;5.10;3.92;;;;;;;2.39;100.00;99561.34;5054760;28;20216;-62
2023/01/25 02:31:16;;;;;;;5.78;4.43;;;;;;;2.31;100.00;99563.19;5054825;28;20193;-62
2023/01/25 02:33:42;;;;;;;8.82;4.07;;;;;;;1.95;100.00;99505.13;5053901;28;20181;-62
2023/01/25 02:36:08;;;;;;;5.97;4.35;;;;;;;2.36;100.00;99560.53;5054663;28;20189;-62
2023/01/25 02:38:38;;;;;;;4.88;4.07;;;;;;;1.97;100.00;99495.72;5054906;28;20598;-61
2023/01/25 02:41:20;;;;;;;4.63;3.67;;;;;;;1.97;100.00;99499.97;5054512;28;20640;-62
2023/01/25 02:43:48;;;;;;;4.65;3.40;;;;;;;2.32;100.00;99554.66;5055030;28;20263;-62
2023/01/25 02:46:28;;;;;;;4.07;3.67;;;;;;;2.34;100.00;99552.91;5054330;28;20264;-62
2023/01/25 02:48:55;;;;;;;3.53;3.15;;;;;;;2.37;100.00;99557.97;5054727;28;20169;-61
2023/01/25 02:51:22;;;;;;;4.78;3.92;;;;;;;2.22;100.00;99529.31;5055156;28;20208;-62
2023/01/25 02:53:48;;;;;;;6.03;3.50;;;;;;;2.13;100.00;99532.03;5054239;28;20181;-62
2023/01/25 02:56:13;;;;;;;4.65;3.35;;;;;;;1.91;100.00;99490.72;5054561;28;20174;-62
2023/01/25 02:58:39;;;;;;;4.35;3.80;;;;;;;1.84;100.00;99501.91;5053945;28;20257;-62
2023/01/25 03:01:04;;;;;;;4.43;3.60;;;;;;;1.98;100.00;99545.88;5053856;28;20180;-61
2023/01/25 03:03:30;;;;;;;9.70;3.95;;;;;;;1.39;100.00;99489.00;5054007;28;20296;-61
2023/01/25 03:05:55;;;;;;;4.70;3.85;;;;;;;1.69;100.00;99527.63;5053839;28;20257;-61
2023/01/25 03:08:20;;;;;;;4.78;3.65;;;;;;;1.99;100.00;99562.03;5054028;28;20177;-62
2023/01/25 03:10:46;;;;;;;4.93;3.72;;;;;;;1.97;100.00;99564.63;5054356;28;20205;-62
2023/01/25 03:13:11;;;;;;;5.45;3.80;;;;;;;2.00;100.00;99554.34;5053965;28;20639;-62
2023/01/25 03:15:39;;;;;;;4.95;4.20;;;;;;;1.64;100.00;99503.91;5053958;28;20181;-62
2023/01/25 03:18:04;;;;;;;4.47;3.63;;;;;;;1.52;100.00;99485.41;5053912;28;20631;-62
2023/01/25 03:20:30;;;;;;;3.75;3.35;;;;;;;1.37;100.00;99491.59;5053850;28;20178;-62
2023/01/25 03:22:55;;;;;;;5.50;4.15;;;;;;;1.78;100.00;99536.84;5054467;28;20201;-61
2023/01/25 03:25:20;;;;;;;4.75;3.70;;;;;;;1.84;100.00;99546.97;5054028;28;20192;-62
2023/01/25 03:27:46;;;;;;;4.85;3.90;;;;;;;1.46;100.00;99486.34;5053988;28;20185;-61
2023/01/25 03:30:11;;;;;;;4.43;3.92;;;;;;;1.86;100.00;99543.53;5053321;28;20712;-62
2023/01/25 03:32:37;;;;;;;4.28;3.58;;;;;;;1.50;100.00;99482.88;5053587;28;20186;-62
2023/01/25 03:35:03;;;;;;;6.68;3.58;;;;;;;1.61;100.00;99526.91;5053494;28;20526;-61
2023/01/25 03:37:30;;;;;;;7.05;4.97;;;;;;;1.61;100.00;99541.38;5053374;28;20213;-61
2023/01/25 03:39:56;;;;;;;4.75;3.55;;;;;;;1.70;100.00;99536.97;5053425;28;20653;-62
2023/01/25 03:42:23;;;;;;;3.65;3.22;;;;;;;0.96;100.00;99442.94;5053586;28;20190;-61
2023/01/25 03:44:48;;;;;;;4.35;3.97;;;;;;;1.59;100.00;99548.22;5053234;28;20220;-62
2023/01/25 03:47:13;;;;;;;7.80;3.75;;;;;;;1.59;100.00;99538.84;5053606;28;20209;-62
2023/01/25 03:49:39;;;;;;;6.25;4.32;;;;;;;1.60;100.00;99545.66;5053517;28;20180;-61
2023/01/25 03:52:04;;;;;;;5.07;3.70;;;;;;;1.26;100.00;99480.72;5053222;28;20658;-61
2023/01/25 03:54:30;;;;;;;5.50;4.40;;;;;;;1.46;100.00;99514.38;5053183;28;20177;-61
2023/01/25 03:56:55;;;;;;;5.43;3.63;;;;;;;1.68;100.00;99566.78;5053136;28;20207;-61
2023/01/25 03:59:21;;;;;;;6.05;3.65;;;;;;;1.22;100.00;99489.25;5053834;28;20182;-61
2023/01/25 04:01:47;;;;;;;4.82;3.20;;;;;;;1.15;100.00;99474.91;5053272;28;20598;-61
2023/01/25 04:04:12;;;;;;;5.03;3.78;;;;;;;1.26;100.00;99497.69;5052939;28;20692;-61
2023/01/25 04:06:37;;;;;;;6.03;3.63;;;;;;;1.49;100.00;99542.41;5052913;28;20627;-62
2023/01/25 04:09:03;;;;;;;3.72;3.42;;;;;;;1.07;100.00;99486.91;5052908;28;20605;-61
2023/01/25 04:11:29;;;;;;;5.00;4.50;;;;;;;1.45;100.00;99534.81;5053170;28;20311;-61
2023/01/25 04:13:54;;;;;;;5.45;4.43;;;;;;;1.57;100.00;99535.47;5053341;28;20667;-61
2023/01/25 04:16:19;;;;;;;4.80;3.70;;;;;;;1.74;100.00;99560.72;5050810;28;20194;-61
2023/01/25 04:18:45;;;;;;;4.35;3.45;;;;;;;1.56;100.00;99538.91;5050579;28;20604;-61
2023/01/25 04:21:10;;;;;;;5.82;4.07;;;;;;;1.17;100.00;99493.56;5050551;28;20715;-61
2023/01/25 04:23:36;;;;;;;4.20;3.63;;;;;;;1.23;100.00;99493.47;5050237;28;20197;-61
2023/01/25 04:26:05;;;;;;;5.90;4.10;;;;;;;1.26;100.00;99498.56;5050675;28;20210;-61
2023/01/25 04:28:32;;;;;;;7.50;4.82;;;;;;;1.25;100.00;99496.00;5050777;28;20547;-61
2023/01/25 04:30:58;;;;;;;7.43;4.80;;;;;;;1.41;100.00;99513.59;5050576;28;20193;-61
2023/01/25 04:33:24;;;;;;;4.07;3.58;;;;;;;1.64;100.00;99557.47;5050169;28;20238;-60
2023/01/25 04:35:49;;;;;;;4.32;3.72;;;;;;;1.79;100.00;99569.16;5049869;28;20189;-61
2023/01/25 04:38:15;;;;;;;4.45;3.95;;;;;;;1.51;100.00;99520.25;5050679;28;20174;-60
2023/01/25 04:40:42;;;;;;;4.75;3.80;;;;;;;1.24;100.00;99504.53;5050388;28;20193;-60
2023/01/25 04:43:07;;;;;;;4.00;3.60;;;;;;;1.22;100.00;99514.75;5050151;28;20308;-61
2023/01/25 04:45:35;;;;;;;4.45;3.90;;;;;;;1.46;100.00;99573.03;5050323;28;20328;-60
2023/01/25 04:48:02;;;;;;;4.35;3.95;;;;;;;1.50;100.00;99572.13;5051771;28;20196;-60
2023/01/25 04:50:28;;;;;;;5.70;4.45;;;;;;;1.51;100.00;99553.41;5053102;28;20543;-60
2023/01/25 04:52:54;;;;;;;4.63;3.55;;;;;;;1.60;100.00;99560.09;5052577;28;20174;-61
2023/01/25 04:55:20;;;;;;;4.18;3.78;;;;;;;1.31;100.00;99513.78;5052486;28;20173;-60
2023/01/25 04:57:49;;;;;;;5.13;4.10;;;;;;;1.57;100.00;99560.13;5051828;28;20640;-60
2023/01/25 05:00:15;;;;;;;4.22;3.63;;;;;;;1.30;100.00;99510.38;5052693;28;20182;-60
2023/01/25 05:02:41;;;;;;;4.32;3.92;;;;;;;1.59;100.00;99549.03;5052943;28;20706;-61
2023/01/25 05:05:07;;;;;;;5.03;4.05;;;;;;;1.28;100.00;99509.56;5052140;28;20239;-61
2023/01/25 05:07:32;;;;;;;8.77;4.32;;;;;;;1.06;100.00;99452.09;5049870;28;20198;-61
2023/01/25 05:09:58;;;;;;;4.47;3.67;;;;;;;1.46;100.00;99504.19;5050063;28;20770;-60
2023/01/25 05:12:23;;;;;;;3.22;2.92;;;;;;;1.72;100.00;99554.81;5050273;28;20185;-60
2023/01/25 05:14:49;;;;;;;4.18;3.58;;;;;;;1.32;100.00;99502.69;5049715;28;20256;-60
2023/01/25 05:17:15;;;;;;;6.00;4.07;;;;;;;1.15;100.00;99505.50;5049904;28;20208;-60
2023/01/25 05:19:41;;;;;;;3.92;3.53;;;;;;;1.50;100.00;99561.09;5049676;28;20205;-60
2023/01/25 05:22:10;;;;;;;4.53;3.42;;;;;;;1.31;100.00;99506.97;5049730;28;20225;-60
2023/01/25 05:24:36;;;;;;;3.47;3.15;;;;;;;1.71;100.00;99576.91;5050047;28;20603;-60
2023/01/25 05:27:02;;;;;;;3.90;3.50;;;;;;;1.59;100.00;99566.88;5050101;28;20190;-60
2023/01/25 05:29:36;;;;;;;3.05;2.75;;;;;;;1.73;100.00;99570.09;5049568;28;20243;-60
2023/01/25 05:32:07;;;;;;;4.30;3.90;;;;;;;1.67;100.00;99572.75;5050121;28;20182;-60
2023/01/25 05:34:33;;;;;;;4.10;3.70;;;;;;;1.38;100.00;99523.88;5049513;28;20240;-60
2023/01/25 05:37:00;;;;;;;4.15;3.50;;;;;;;1.80;100.00;99587.00;5049915;28;20259;-61
2023/01/25 05:39:25;;;;;;;3.97;3.53;;;;;;;1.39;100.00;99520.44;5051535;28;20189;-61
2023/01/25 05:41:51;;;;;;;3.95;3.35;;;;;;;1.79;100.00;99554.69;5051781;28;20637;-60
2023/01/25 05:44:16;;;;;;;3.85;3.45;;;;;;;1.87;100.00;99570.72;5051984;28;20194;-60
2023/01/25 05:46:42;;;;;;;6.75;3.47;;;;;;;1.51;100.00;99524.50;5051725;28;20185;-60
2023/01/25 05:49:10;;;;;;;5.18;3.80;;;;;;;1.41;100.00;99511.06;5051704;28;20174;-60
2023/01/25 05:51:37;;;;;;;4.43;3.05;;;;;;;1.54;100.00;99522.78;5051399;28;20186;-60
2023/01/25 05:54:06;;;;;;;3.40;3.10;;;;;;;1.53;100.00;99521.06;5051677;28;20243;-60
2023/01/25 05:56:32;;;;;;;4.35;3.13;;;;;;;1.70;100.00;99536.16;5051970;28;20174;-61
2023/01/25 05:59:00;;;;;;;4.10;3.60;;;;;;;1.91;100.00;99551.94;5051699;28;20181;-60
2023/01/25 06:01:26;;;;;;;5.10;3.00;;;;;;;1.70;100.00;99542.06;5052199;28;20662;-61
2023/01/25 06:03:52;;;;;;;4.10;3.60;;;;;;;1.64;100.00;99531.13;5051570;28;20205;-61
2023/01/25 06:06:18;;;;;;;6.40;3.70;;;;;;;1.50;100.00;99515.19;5051562;28;20193;-61
2023/01/25 06:08:44;;;;;;;4.40;4.00;;;;;;;1.95;100.00;99584.22;5052384;28;20196;-61
2023/01/25 06:11:12;;;;;;;8.27;4.25;;;;;;;1.76;100.00;99541.97;5055351;28;20182;-61
2023/01/25 06:13:37;;;;;;;8.43;5.47;;;;;;;2.09;100.00;99582.28;5055075;28;20227;-61
2023/01/25 06:16:03;;;;;;;9.02;5.05;;;;;;;2.24;100.00;99592.25;5054693;28;20186;-61
2023/01/25 06:18:31;;;;;;;6.63;4.65;;;;;;;2.02;100.00;99546.66;5054961;28;20174;-61
2023/01/25 06:20:57;;;;;;;5.25;4.60;;;;;;;2.17;100.00;99560.00;5055185;28;20265;-61
2023/01/25 06:23:22;;;;;;;31.58;15.57;;;;;;;2.45;100.00;99594.44;5055376;28;20213;-61
2023/01/25 06:25:48;;;;;;;15.02;9.50;;;;;;;2.19;100.00;99532.75;5054810;28;20715;-61
2023/01/25 06:28:13;;;;;;;7.35;5.50;;;;;;;2.37;100.00;99585.22;5055303;28;20231;-61
2023/01/25 06:30:39;;;;;;;8.55;5.00;;;;;;;2.50;100.00;99600.28;5054832;28;20184;-60
2023/01/25 06:33:04;;;;;;;5.40;4.38;;;;;;;2.26;100.00;99544.53;5055216;28;20185;-61
2023/01/25 06:35:31;;;;;;;14.48;7.25;;;;;;;2.23;100.00;99539.47;5055174;28;20180;-60
2023/01/25 06:37:57;;;;;;;15.10;7.07;;;;;;;2.40;100.00;99601.31;5055095;28;20205;-60
2023/01/25 06:40:23;;;;;;;14.07;8.93;;;;;;;2.44;100.00;99590.19;5054606;28;20205;-61
2023/01/25 06:42:48;;;;;;;8.00;5.78;;;;;;;2.40;100.00;99595.38;5054154;28;20212;-61
2023/01/25 06:45:14;;;;;;;10.60;5.45;;;;;;;1.82;100.00;99493.41;5054976;28;20186;-60
2023/01/25 06:47:39;;;;;;;12.65;5.93;;;;;;;2.34;100.00;99588.66;5054985;28;20214;-61
2023/01/25 06:50:05;;;;;;;11.40;6.05;;;;;;;2.11;100.00;99549.06;5054606;28;20181;-61
2023/01/25 06:52:30;;;;;;;9.38;5.35;;;;;;;2.27;100.00;99561.53;5054973;28;20227;-61
2023/01/25 06:54:56;;;;;;;8.32;5.47;;;;;;;2.16;100.00;99537.09;5054783;28;20173;-60
2023/01/25 06:57:22;;;;;;;14.85;9.30;;;;;;;2.69;100.00;99605.94;5054765;28;20189;-61
2023/01/25 06:59:47;;;;;;;9.75;6.72;;;;;;;2.57;100.00;99585.72;5054242;28;20636;-61
2023/01/25 07:02:14;;;;;;;14.20;8.32;;;;;;;2.51;100.00;99584.09;5054758;28;20219;-61
2023/01/25 07:04:39;;;;;;;13.13;8.20;;;;;;;2.23;100.00;99539.47;5054070;28;20240;-61
2023/01/25 07:07:07;;;;;;;16.55;9.35;;;;;;;2.46;100.00;99593.56;5053760;28;20205;-61
2023/01/25 07:09:34;;;;;;;13.20;7.82;;;;;;;2.54;100.00;99595.97;5054330;28;20166;-61
2023/01/25 07:12:00;;;;;;;7.72;6.57;;;;;;;2.43;100.00;99595.31;5054550;28;20181;-61
2023/01/25 07:14:26;;;;;;;9.68;6.90;;;;;;;2.08;100.00;99549.13;5053574;28;20182;-61
2023/01/25 07:16:51;;;;;;;8.00;6.25;;;;;;;2.21;100.00;99602.50;5053546;28;20542;-60
2023/01/25 07:19:17;;;;;;;7.45;5.60;;;;;;;2.35;100.00;99590.34;5053584;28;20640;-61
2023/01/25 07:21:42;;;;;;;8.95;5.65;;;;;;;2.38;100.00;99595.41;5054320;28;20180;-61
2023/01/25 07:24:13;;;;;;;10.27;6.78;;;;;;;1.97;100.00;99545.91;5053630;28;20660;-62
2023/01/25 07:26:39;;;;;;;7.63;5.60;;;;;;;1.99;100.00;99544.19;5054068;28;20181;-61
2023/01/25 07:29:04;;;;;;;9.40;5.90;;;;;;;2.37;100.00;99603.94;5053664;28;20186;-61
2023/01/25 07:31:30;;;;;;;11.35;6.03;;;;;;;2.33;100.00;99615.06;5071277;28;20640;-61
2023/01/25 07:33:57;;;;;;;8.27;5.95;;;;;;;2.21;100.00;99594.84;5071315;28;20236;-61
2023/01/25 07:36:22;;;;;;;9.77;5.15;;;;;;;2.39;100.00;99627.72;5071291;28;20216;-61
2023/01/25 07:38:51;;;;;;;5.38;4.82;;;;;;;1.87;100.00;99568.16;5071039;28;20185;-61
2023/01/25 07:41:16;;;;;;;6.40;4.88;;;;;;;1.75;100.00;99553.06;5071054;28;20222;-61
2023/01/25 07:43:42;;;;;;;8.68;5.57;;;;;;;1.84;100.00;99554.63;5071030;28;20209;-61
2023/01/25 07:46:12;;;;;;;7.78;4.93;;;;;;;1.87;100.00;99557.97;5070986;28;20173;-61
2023/01/25 07:48:39;;;;;;;7.55;4.95;;;;;;;1.76;100.00;99551.34;5071289;28;20581;-60
2023/01/25 07:51:22;;;;;;;6.80;4.97;;;;;;;1.86;100.00;99552.88;5071108;28;20189;-61
2023/01/25 07:53:55;;;;;;;6.50;5.55;;;;;;;2.15;100.00;99596.63;5071190;28;20191;-60
2023/01/25 07:56:24;;;;;;;11.82;6.75;;;;;;;2.04;100.00;99557.72;5070838;28;20402;-61
2023/01/25 07:58:53;;;;;;;15.10;8.95;;;;;;;2.36;100.00;99627.78;5070745;28;20611;-61
2023/01/25 08:01:20;;;;;;;8.07;6.53;;;;;;;2.25;100.00;99623.72;5070848;28;20660;-61
2023/01/25 08:03:46;;;;;;;6.45;5.72;;;;;;;2.23;100.00;99610.97;5070770;28;20207;-61
2023/01/25 08:06:12;;;;;;;8.13;6.10;;;;;;;2.35;100.00;99620.97;5070573;28;20542;-61
2023/01/25 08:08:41;;;;;;;11.18;6.20;;;;;;;2.27;100.00;99627.94;5063621;28;20196;-61
2023/01/25 08:11:08;;;;;;;6.00;4.85;;;;;;;2.13;100.00;99632.44;5053347;28;20174;-61
2023/01/25 08:13:33;;;;;;;6.55;5.63;;;;;;;2.16;100.00;99631.53;5052801;28;20193;-61
2023/01/25 08:15:59;;;;;;;6.97;5.13;;;;;;;2.23;100.00;99625.47;5052664;28;20185;-60
2023/01/25 08:18:24;;;;;;;12.02;7.00;;;;;;;1.89;100.00;99571.56;5053321;28;20177;-61
2023/01/25 08:20:50;;;;;;;9.02;5.97;;;;;;;2.09;100.00;99618.00;5052665;28;20178;-60
2023/01/25 08:23:15;;;;;;;6.97;5.70;;;;;;;2.00;100.00;99574.75;5053110;28;20229;-61
2023/01/25 08:25:41;;;;;;;10.10;6.82;;;;;;;2.32;100.00;99615.09;5052042;28;20235;-61
2023/01/25 08:28:06;;;;;;;6.80;5.20;;;;;;;1.94;100.00;99591.91;5050566;28;20175;-61
2023/01/25 08:30:32;;;;;;;9.85;5.75;;;;;;;2.37;100.00;99638.84;5052420;28;20185;-60
2023/01/25 08:32:58;;;;;;;8.70;6.22;;;;;;;2.31;100.00;99614.25;5051965;28;20177;-61
2023/01/25 08:35:23;;;;;;;9.55;6.07;;;;;;;2.13;100.00;99571.16;5052984;28;20184;-61
2023/01/25 08:37:49;;;;;;;9.68;5.78;;;;;;;2.51;100.00;99622.41;5051971;28;20193;-61
2023/01/25 08:40:14;;;;;;;9.07;5.75;;;;;;;2.47;100.00;99623.34;5052335;28;20182;-60
2023/01/25 08:42:41;;;;;;;10.68;6.18;;;;;;;1.82;100.00;99511.25;5052638;28;20193;-61
2023/01/25 08:45:08;;;;;;;10.55;7.15;;;;;;;2.47;100.00;99609.72;5052396;28;20637;-61
2023/01/25 08:47:34;;;;;;;14.07;8.32;;;;;;;2.58;100.00;99623.97;5052301;28;20178;-60
2023/01/25 08:49:59;;;;;;;9.88;6.75;;;;;;;2.34;100.00;99568.22;5052912;28;20177;-61
2023/01/25 08:52:25;;;;;;;13.20;7.75;;;;;;;2.43;100.00;99605.53;5052300;28;20182;-61
2023/01/25 08:54:50;;;;;;;12.93;7.10;;;;;;;2.13;100.00;99543.09;5052514;28;20572;-61
2023/01/25 08:57:16;;;;;;;9.35;6.15;;;;;;;2.11;100.00;99561.84;5051932;28;20603;-61
2023/01/25 08:59:41;;;;;;;13.30;7.88;;;;;;;2.48;100.00;99625.03;5052196;28;20213;-61
2023/01/25 09:02:10;;;;;;;22.33;12.88;;;;;;;2.43;100.00;99593.63;5052183;28;20729;-61
2023/01/25 09:04:36;;;;;;;13.27;8.65;;;;;;;2.48;100.00;99607.16;5052597;28;20209;-61
2023/01/25 09:07:01;;;;;;;9.82;7.25;;;;;;;2.47;100.00;99600.38;5052122;28;20567;-61
2023/01/25 09:09:28;;;;;;;11.07;8.30;;;;;;;2.27;100.00;99545.41;5053002;28;20174;-61
2023/01/25 09:11:54;;;;;;;10.18;6.55;;;;;;;2.31;100.00;99555.53;5052090;28;20557;-61
2023/01/25 09:14:19;;;;;;;15.68;9.45;;;;;;;2.75;100.00;99621.97;5052086;28;20178;-61
2023/01/25 09:16:45;;;;;;;22.05;13.95;;;;;;;2.53;100.00;99607.06;5052089;28;20181;-61
2023/01/25 09:19:10;;;;;;;13.05;8.55;;;;;;;2.19;100.00;99549.78;5052539;28;20178;-61
2023/01/25 09:21:36;;;;;;;14.18;10.85;;;;;;;2.54;100.00;99590.88;5052219;28;20257;-61
2023/01/25 09:24:01;;;;;;;12.52;8.77;;;;;;;2.62;100.00;99592.41;5052448;28;20216;-61
2023/01/25 09:26:26;;;;;;;12.40;8.30;;;;;;;2.71;100.00;99584.59;5051943;28;20186;-60
2023/01/25 09:28:53;;;;;;;10.77;8.82;;;;;;;2.51;100.00;99538.13;5029812;28;20187;-60
2023/01/25 09:31:20;;;;;;;11.15;7.32;;;;;;;2.69;100.00;99535.22;5030187;28;20194;-60
2023/01/25 09:33:46;;;;;;;12.35;7.65;;;;;;;2.83;100.00;99569.03;5029914;28;20190;-60
2023/01/25 09:36:12;;;;;;;10.10;6.65;;;;;;;2.67;100.00;99551.44;5029500;28;20674;-60
2023/01/25 09:38:38;;;;;;;14.02;7.60;;;;;;;2.52;100.00;99510.88;5029811;28;20197;-61
2023/01/25 09:41:03;;;;;;;9.85;7.05;;;;;;;3.01;100.00;99573.78;5029676;28;20575;-60
2023/01/25 09:43:49;;;;;;;12.85;7.80;;;;;;;2.93;100.00;99567.94;5031879;28;20618;-61
2023/01/25 09:46:52;;;;;;;11.15;7.57;;;;;;;3.01;100.00;99565.25;5033923;28;20170;-61
2023/01/25 09:49:28;;;;;;;11.70;6.60;;;;;;;2.93;100.00;99564.56;5014282;28;20304;-61
2023/01/25 09:52:02;;;;;;;10.15;5.90;;;;;;;2.85;100.00;99559.59;5013822;28;20640;-61
2023/01/25 09:54:35;;;;;;;6.15;5.22;;;;;;;2.10;100.00;99448.69;5014174;28;20733;-61
2023/01/25 09:57:03;;;;;;;12.23;7.50;;;;;;;2.13;100.00;99446.09;5013505;28;20174;-61
2023/01/25 09:59:30;;;;;;;7.55;5.45;;;;;;;2.90;100.00;99539.91;5027771;28;20292;-61
2023/01/25 10:02:25;;;;;;;9.73;5.93;;;;;;;2.90;100.00;99547.59;5052425;28;20185;-61
2023/01/25 10:04:54;;;;;;;8.45;5.72;;;;;;;2.86;100.00;99520.41;5013219;28;20703;-61
2023/01/25 10:07:29;;;;;;;9.63;5.82;;;;;;;2.97;100.00;99545.75;5013455;28;20215;-61
2023/01/25 10:10:09;;;;;;;15.75;8.20;;;;;;;3.09;100.00;99548.06;5013269;28;20198;-61
2023/01/25 10:12:37;;;;;;;12.52;7.53;;;;;;;2.67;100.00;99474.81;5013696;28;20205;-61
2023/01/25 10:15:17;;;;;;;11.27;6.25;;;;;;;2.83;100.00;99510.25;5013742;28;20195;-61
2023/01/25 10:17:43;;;;;;;9.85;5.22;;;;;;;2.83;100.00;99504.28;5012977;28;20638;-61
2023/01/25 10:20:25;;;;;;;10.48;7.28;;;;;;;2.82;100.00;99472.78;5013056;28;20243;-61
2023/01/25 10:23:02;;;;;;;10.27;7.00;;;;;;;3.08;100.00;99528.47;5013649;28;20190;-61
2023/01/25 10:25:31;;;;;;;10.52;8.38;;;;;;;2.95;100.00;99522.78;5012888;28;20191;-61
2023/01/25 10:28:16;;;;;;;10.63;8.45;;;;;;;2.89;100.00;99507.56;5012787;28;20183;-61
2023/01/25 10:30:53;;;;;;;12.00;7.88;;;;;;;3.06;100.00;99515.72;5013303;28;20187;-61
2023/01/25 10:33:21;;;;;;;11.70;5.82;;;;;;;2.99;100.00;99482.66;5012753;28;20716;-61
2023/01/25 10:35:48;;;;;;;8.57;6.68;;;;;;;2.70;100.00;99450.03;5012968;28;20191;-60
2023/01/25 10:38:24;;;;;;;10.55;6.80;;;;;;;2.94;100.00;99487.88;5013194;28;20171;-61
2023/01/25 10:41:08;;;;;;;12.75;7.88;;;;;;;3.19;100.00;99495.84;5018198;28;20179;-61
2023/01/25 10:43:34;;;;;;;15.07;6.15;;;;;;;3.20;100.00;99488.13;5055022;28;20641;-61
2023/01/25 10:46:00;;;;;;;11.50;8.32;;;;;;;2.81;100.00;99426.81;5055056;28;20261;-61
2023/01/25 10:48:31;;;;;;;11.43;8.00;;;;;;;3.08;100.00;99450.06;5054476;28;20170;-61
2023/01/25 10:50:57;;;;;;;9.63;5.03;;;;;;;2.63;100.00;99402.50;5054738;28;20273;-61
2023/01/25 10:53:44;;;;;;;10.57;6.45;;;;;;;3.04;100.00;99474.00;5054373;28;20719;-61
2023/01/25 10:56:09;;;;;;;8.73;6.07;;;;;;;2.97;100.00;99471.63;5054109;28;20174;-61
2023/01/25 10:58:40;;;;;;;8.70;6.75;;;;;;;2.78;100.00;99409.84;5054345;28;20174;-61
2023/01/25 11:01:09;;;;;;;7.38;5.50;;;;;;;2.73;100.00;99398.88;5055072;28;20243;-61
2023/01/25 11:03:41;;;;;;;18.60;12.15;;;;;;;3.04;100.00;99450.16;5054080;28;20292;-61
2023/01/25 11:06:08;;;;;;;19.25;9.85;;;;;;;3.18;100.00;99464.31;5054200;28;20633;-61
2023/01/25 11:08:38;;;;;;;13.90;7.88;;;;;;;2.98;100.00;99419.63;5054063;28;20685;-61
2023/01/25 11:11:22;;;;;;;10.48;7.20;;;;;;;3.48;100.00;99468.75;5053672;28;20581;-61
2023/01/25 11:13:48;;;;;;;15.13;9.27;;;;;;;2.83;100.00;99367.13;5053968;28;20186;-61
2023/01/25 11:16:31;;;;;;;14.30;7.38;;;;;;;3.33;100.00;99433.28;5054726;28;20188;-61
2023/01/25 11:18:59;;;;;;;6.72;5.90;;;;;;;3.14;99.71;99413.28;5054481;28;20165;-61
2023/01/25 11:21:30;;;;;;;11.90;6.57;;;;;;;2.82;100.00;99395.28;5054395;28;20185;-61
2023/01/25 11:24:04;;;;;;;9.45;7.10;;;;;;;3.35;100.00;99441.78;5054363;28;20648;-61
2023/01/25 11:26:31;;;;;;;6.47;4.75;;;;;;;3.13;100.00;99379.22;5053750;28;20181;-61
2023/01/25 11:29:15;;;;;;;13.27;10.50;;;;;;;3.23;100.00;99426.72;5054513;28;20190;-61
2023/01/25 11:31:45;;;;;;;16.90;10.20;;;;;;;2.72;100.00;99324.81;5054514;28;20197;-61
2023/01/25 11:34:16;;;;;;;20.65;12.32;;;;;;;2.99;99.06;99357.41;5053561;28;20644;-61